createdAt,value
2023-01-30T00:01:22.467Z,3.10
2023-01-30T00:03:49.115Z,3.20
2023-01-30T00:06:16.243Z,3.20
2023-01-30T00:08:43.177Z,3.20
2023-01-30T00:11:12.173Z,3.20
2023-01-30T00:13:39.745Z,3.30
2023-01-30T00:16:07.345Z,3.30
2023-01-30T00:18:34.016Z,3.30
2023-01-30T00:21:02.897Z,3.30
2023-01-30T00:23:32.867Z,3.30
2023-01-30T00:25:59.557Z,3.30
2023-01-30T00:28:26.222Z,3.40
2023-01-30T00:30:54.272Z,3.40
2023-01-30T00:33:25.830Z,3.40
2023-01-30T00:35:54.371Z,3.40
2023-01-30T00:38:21.966Z,3.40
2023-01-30T00:40:49.397Z,3.40
2023-01-30T00:43:37.466Z,3.50
2023-01-30T00:46:49.851Z,3.50
2023-01-30T00:49:17.150Z,3.50
2023-01-30T00:51:44.221Z,3.50
2023-01-30T00:54:11.099Z,3.50
2023-01-30T00:56:38.021Z,3.50
2023-01-30T00:59:04.697Z,3.50
2023-01-30T01:01:31.367Z,3.50
2023-01-30T01:03:57.990Z,3.50
2023-01-30T01:06:24.786Z,3.60
2023-01-30T01:08:51.451Z,3.60
2023-01-30T01:11:24.456Z,3.60
2023-01-30T01:13:56.607Z,3.60
2023-01-30T01:16:24.074Z,3.50
2023-01-30T01:18:51.239Z,3.60
2023-01-30T01:21:20.302Z,3.60
2023-01-30T01:23:52.144Z,3.60
2023-01-30T01:26:19.766Z,3.60
2023-01-30T01:28:46.458Z,3.60
2023-01-30T01:31:15.565Z,3.50
2023-01-30T01:33:42.281Z,3.50
2023-01-30T01:36:09.306Z,3.50
2023-01-30T01:38:36.061Z,3.40
2023-01-30T01:41:02.777Z,3.50
2023-01-30T01:43:36.200Z,3.40
2023-01-30T01:46:29.988Z,3.40
2023-01-30T01:49:00.110Z,3.50
2023-01-30T01:51:49.849Z,3.50
2023-01-30T01:54:22.076Z,3.50
2023-01-30T01:56:49.862Z,3.50
2023-01-30T01:59:20.689Z,3.50
2023-01-30T02:01:48.334Z,3.60
2023-01-30T02:04:35.486Z,3.50
2023-01-30T02:07:02.567Z,3.60
2023-01-30T02:09:29.270Z,3.60
2023-01-30T02:12:00.796Z,3.60
2023-01-30T02:14:27.794Z,3.60
2023-01-30T02:16:54.473Z,3.60
2023-01-30T02:19:39.440Z,3.60
2023-01-30T02:22:16.884Z,3.70
2023-01-30T02:25:31.479Z,3.60
2023-01-30T02:28:32.164Z,3.60
2023-01-30T02:31:05.734Z,3.70
2023-01-30T02:33:50.318Z,3.80
2023-01-30T02:36:45.987Z,3.80
2023-01-30T02:39:38.885Z,3.90
2023-01-30T02:42:14.607Z,3.90
2023-01-30T02:44:52.994Z,3.90
2023-01-30T02:47:27.275Z,3.90
2023-01-30T02:50:06.879Z,3.90
2023-01-30T02:52:34.262Z,3.90
2023-01-30T02:55:02.565Z,3.90
2023-01-30T02:57:29.335Z,3.90
2023-01-30T03:00:04.549Z,4.00
2023-01-30T03:03:06.986Z,4.00
2023-01-30T03:06:04.724Z,4.00
2023-01-30T03:08:43.006Z,4.10
2023-01-30T03:11:11.793Z,4.00
2023-01-30T03:13:48.239Z,4.10
2023-01-30T03:16:36.521Z,4.10
2023-01-30T03:19:06.675Z,4.10
2023-01-30T03:21:33.819Z,4.10
2023-01-30T03:24:00.981Z,4.10
2023-01-30T03:26:32.601Z,4.10
2023-01-30T03:29:01.319Z,4.10
2023-01-30T03:31:28.191Z,4.20
2023-01-30T03:33:55.048Z,4.20
2023-01-30T03:36:21.764Z,4.20
2023-01-30T03:38:48.772Z,4.20
2023-01-30T03:41:16.302Z,4.20
2023-01-30T03:43:43.063Z,4.20
2023-01-30T03:46:09.829Z,4.20
2023-01-30T03:48:36.684Z,4.30
2023-01-30T03:51:03.462Z,4.30
2023-01-30T03:53:30.204Z,4.30
2023-01-30T03:55:56.891Z,4.30
2023-01-30T03:58:27.694Z,4.40
2023-01-30T04:00:57.396Z,4.40
2023-01-30T04:03:25.485Z,4.50
2023-01-30T04:05:56.337Z,4.40
2023-01-30T04:08:23.033Z,4.40
2023-01-30T04:10:49.757Z,4.40
2023-01-30T04:13:16.522Z,4.50
2023-01-30T04:15:43.200Z,4.50
2023-01-30T04:18:28.627Z,4.60
2023-01-30T04:21:03.527Z,4.60
2023-01-30T04:23:35.549Z,4.50
2023-01-30T04:26:04.382Z,4.60
2023-01-30T04:28:32.791Z,4.60
2023-01-30T04:30:59.921Z,4.60
2023-01-30T04:33:45.259Z,4.70
2023-01-30T04:36:13.234Z,4.70
2023-01-30T04:38:40.915Z,4.70
2023-01-30T04:41:07.939Z,4.70
2023-01-30T04:43:38.889Z,4.80
2023-01-30T04:46:24.562Z,4.80
2023-01-30T04:48:51.377Z,4.80
2023-01-30T04:51:18.255Z,4.80
2023-01-30T04:53:47.132Z,4.90
2023-01-30T04:56:14.007Z,4.90
2023-01-30T04:58:41.082Z,4.90
2023-01-30T05:01:25.618Z,5.00
2023-01-30T05:03:53.353Z,5.00
2023-01-30T05:06:21.170Z,5.10
2023-01-30T05:08:49.515Z,5.10
2023-01-30T05:11:16.313Z,5.10
2023-01-30T05:13:43.955Z,5.10
2023-01-30T05:16:12.017Z,5.20
2023-01-30T05:18:39.073Z,5.20
2023-01-30T05:21:07.957Z,5.20
2023-01-30T05:23:35.048Z,5.30
2023-01-30T05:26:02.407Z,5.30
2023-01-30T05:28:29.319Z,5.40
2023-01-30T05:31:02.196Z,5.40
2023-01-30T05:33:29.413Z,5.40
2023-01-30T05:35:56.239Z,5.50
2023-01-30T05:38:24.016Z,5.50
2023-01-30T05:41:00.394Z,5.50
2023-01-30T05:43:28.083Z,5.50
2023-01-30T05:45:56.912Z,5.50
2023-01-30T05:48:24.011Z,5.50
2023-01-30T05:50:52.184Z,5.50
2023-01-30T05:53:23.252Z,5.50
2023-01-30T05:56:00.881Z,5.60
2023-01-30T05:58:28.261Z,5.60
2023-01-30T06:00:54.986Z,5.60
2023-01-30T06:03:21.671Z,5.60
2023-01-30T06:05:48.324Z,5.60
2023-01-30T06:08:15.000Z,5.60
2023-01-30T06:10:41.759Z,5.60
2023-01-30T06:13:10.922Z,5.60
2023-01-30T06:15:38.106Z,5.60
2023-01-30T06:18:04.836Z,5.60
2023-01-30T06:20:31.585Z,5.60
2023-01-30T06:22:58.344Z,5.60
2023-01-30T06:25:25.214Z,5.60
2023-01-30T06:27:51.937Z,5.60
2023-01-30T06:30:18.759Z,5.60
2023-01-30T06:32:45.591Z,5.60
2023-01-30T06:36:42.697Z,5.60
2023-01-30T06:39:09.477Z,5.70
2023-01-30T06:41:36.123Z,5.60
2023-01-30T06:44:02.865Z,5.60
2023-01-30T06:46:29.544Z,5.60
2023-01-30T06:48:56.263Z,5.60
2023-01-30T06:51:22.987Z,5.60
2023-01-30T06:53:51.760Z,5.60
2023-01-30T06:56:19.696Z,5.70
2023-01-30T06:58:46.380Z,5.70
2023-01-30T07:01:13.045Z,5.70
2023-01-30T07:03:39.698Z,5.70
2023-01-30T07:06:06.360Z,5.80
2023-01-30T07:08:32.996Z,5.80
2023-01-30T07:10:59.702Z,5.80
2023-01-30T07:13:26.392Z,5.80
2023-01-30T07:15:53.076Z,5.70
2023-01-30T07:18:19.773Z,5.80
2023-01-30T07:20:50.331Z,5.70
2023-01-30T07:23:17.830Z,5.70
2023-01-30T07:25:44.560Z,5.70
2023-01-30T07:28:11.257Z,5.70
2023-01-30T07:30:38.246Z,5.70
2023-01-30T07:33:06.667Z,5.70
2023-01-30T07:35:35.730Z,5.70
2023-01-30T07:38:02.671Z,5.80
2023-01-30T07:40:29.406Z,5.80
2023-01-30T07:43:01.205Z,5.80
2023-01-30T07:45:48.452Z,5.90
2023-01-30T07:48:17.775Z,5.90
2023-01-30T07:50:44.745Z,5.90
2023-01-30T07:53:14.823Z,6.00
2023-01-30T07:55:41.900Z,5.90
2023-01-30T07:58:11.028Z,5.90
2023-01-30T08:00:37.688Z,6.00
2023-01-30T08:03:04.503Z,6.00
2023-01-30T08:05:31.782Z,5.90
2023-01-30T08:08:00.722Z,6.00
2023-01-30T08:10:27.403Z,6.00
2023-01-30T08:12:54.110Z,6.00
2023-01-30T08:15:22.862Z,6.00
2023-01-30T08:17:56.673Z,6.10
2023-01-30T08:20:24.854Z,6.10
2023-01-30T08:22:52.300Z,6.10
2023-01-30T08:25:19.529Z,6.20
2023-01-30T08:27:46.180Z,6.20
2023-01-30T08:30:13.678Z,6.10
2023-01-30T08:32:40.443Z,6.20
2023-01-30T08:35:07.718Z,6.20
2023-01-30T08:37:34.390Z,6.20
2023-01-30T08:40:01.384Z,6.20
2023-01-30T08:42:28.046Z,6.30
2023-01-30T08:44:54.751Z,6.30
2023-01-30T08:47:21.388Z,6.30
2023-01-30T08:49:48.289Z,6.30
2023-01-30T08:52:15.008Z,6.30
2023-01-30T08:54:41.910Z,6.30
2023-01-30T08:57:08.564Z,6.30
2023-01-30T08:59:35.258Z,6.30
2023-01-30T09:02:01.992Z,6.30
2023-01-30T09:04:32.381Z,6.30
2023-01-30T09:06:59.060Z,6.40
2023-01-30T09:09:25.735Z,6.40
2023-01-30T09:11:52.431Z,6.40
2023-01-30T09:14:19.813Z,6.40
2023-01-30T09:16:48.225Z,6.40
2023-01-30T09:19:15.048Z,6.40
2023-01-30T09:21:41.719Z,6.40
2023-01-30T09:24:08.518Z,6.40
2023-01-30T09:26:35.220Z,6.40
2023-01-30T09:29:01.962Z,6.40
2023-01-30T09:31:28.769Z,6.40
2023-01-30T09:33:55.451Z,6.40
2023-01-30T09:36:22.107Z,6.50
2023-01-30T09:38:48.792Z,6.50
2023-01-30T09:41:47.484Z,6.50
2023-01-30T09:44:45.204Z,6.50
2023-01-30T09:47:38.691Z,6.70
2023-01-30T09:50:40.318Z,6.90
2023-01-30T09:53:22.538Z,6.90
2023-01-30T09:55:49.305Z,6.80
2023-01-30T09:58:22.698Z,6.70
2023-01-30T10:00:53.041Z,6.70
2023-01-30T10:03:27.224Z,6.70
2023-01-30T10:06:14.032Z,6.60
2023-01-30T10:08:50.044Z,6.60
2023-01-30T10:11:39.337Z,6.70
2023-01-30T10:14:43.276Z,6.50
2023-01-30T10:17:24.316Z,6.40
2023-01-30T10:20:16.785Z,6.40
2023-01-30T10:22:46.512Z,6.40
2023-01-30T10:25:20.481Z,6.50
2023-01-30T10:28:08.919Z,6.50
2023-01-30T10:30:36.047Z,6.60
2023-01-30T10:33:12.498Z,6.60
2023-01-30T10:35:42.807Z,6.70
2023-01-30T10:38:20.396Z,6.80
2023-01-30T10:41:07.899Z,6.80
2023-01-30T10:43:44.064Z,6.80
2023-01-30T10:46:19.736Z,7.00
2023-01-30T10:48:55.089Z,6.80
2023-01-30T10:52:03.402Z,6.70
2023-01-30T10:54:35.080Z,6.60
2023-01-30T10:57:26.287Z,6.40
2023-01-30T10:59:56.098Z,6.40
2023-01-30T11:02:46.741Z,6.50
2023-01-30T11:05:18.543Z,6.50
2023-01-30T11:07:48.210Z,6.60
2023-01-30T11:10:17.980Z,6.70
2023-01-30T11:12:44.868Z,6.80
2023-01-30T11:15:11.947Z,6.80
2023-01-30T11:17:47.531Z,6.80
2023-01-30T11:20:22.498Z,7.00
2023-01-30T11:23:04.163Z,7.10
2023-01-30T11:25:30.833Z,7.20
2023-01-30T11:28:03.150Z,7.20
2023-01-30T11:30:34.834Z,7.20
2023-01-30T11:33:14.456Z,7.20
2023-01-30T11:35:54.238Z,7.30
2023-01-30T11:38:26.585Z,7.30
2023-01-30T11:41:07.159Z,7.20
2023-01-30T11:43:37.181Z,7.20
2023-01-30T11:46:05.535Z,7.10
2023-01-30T11:49:35.931Z,7.00
2023-01-30T11:51:24.554Z,6.90
2023-01-30T11:54:00.632Z,6.90
2023-01-30T11:56:52.097Z,6.60
2023-01-30T11:59:24.834Z,6.20
2023-01-30T12:01:52.908Z,5.80
2023-01-30T12:04:20.367Z,5.60
2023-01-30T12:07:03.793Z,5.40
2023-01-30T12:09:35.171Z,5.30
2023-01-30T12:12:02.089Z,5.30
2023-01-30T12:14:40.162Z,5.50
2023-01-30T12:17:29.847Z,5.60
2023-01-30T12:20:11.831Z,5.70
2023-01-30T12:22:58.785Z,5.80
2023-01-30T12:25:44.240Z,5.90
2023-01-30T12:28:29.766Z,5.90
2023-01-30T12:31:04.246Z,5.90
2023-01-30T12:33:34.715Z,5.90
2023-01-30T12:36:15.239Z,5.80
2023-01-30T12:38:50.794Z,5.50
2023-01-30T12:41:42.433Z,5.20
2023-01-30T12:44:23.087Z,5.20
2023-01-30T12:47:10.218Z,5.70
2023-01-30T12:50:21.187Z,6.00
2023-01-30T12:53:28.134Z,6.40
2023-01-30T12:56:07.461Z,6.80
2023-01-30T12:58:38.275Z,7.10
2023-01-30T13:01:24.938Z,7.40
2023-01-30T13:04:16.961Z,7.80
2023-01-30T13:07:02.646Z,7.90
2023-01-30T13:10:02.982Z,7.70
2023-01-30T13:12:46.520Z,7.60
2023-01-30T13:15:44.701Z,7.80
2023-01-30T13:18:30.192Z,8.00
2023-01-30T13:21:01.376Z,7.80
2023-01-30T13:23:35.275Z,7.40
2023-01-30T13:26:08.615Z,7.00
2023-01-30T13:28:46.547Z,6.90
2023-01-30T13:31:18.121Z,6.90
2023-01-30T13:33:49.374Z,6.80
2023-01-30T13:36:42.482Z,6.90
2023-01-30T13:39:29.733Z,7.00
2023-01-30T13:42:00.024Z,7.50
2023-01-30T13:44:30.964Z,7.50
2023-01-30T13:47:04.497Z,7.40
2023-01-30T13:50:02.123Z,7.60
2023-01-30T13:52:47.729Z,7.80
2023-01-30T13:55:32.064Z,8.50
2023-01-30T13:58:26.228Z,8.30
2023-01-30T14:00:54.978Z,7.80
2023-01-30T14:03:30.388Z,7.60
2023-01-30T14:06:04.862Z,7.60
2023-01-30T14:08:50.201Z,7.60
2023-01-30T14:11:32.355Z,7.50
2023-01-30T14:14:15.884Z,7.50
2023-01-30T14:16:44.358Z,7.90
2023-01-30T14:19:45.146Z,7.80
2023-01-30T14:22:28.374Z,7.50
2023-01-30T14:25:30.293Z,7.30
2023-01-30T14:27:59.716Z,7.30
2023-01-30T14:30:45.373Z,7.30
2023-01-30T14:33:21.415Z,7.20
2023-01-30T14:35:58.322Z,7.20
2023-01-30T14:38:30.534Z,7.10
2023-01-30T14:41:00.217Z,7.10
2023-01-30T14:43:42.370Z,7.10
2023-01-30T14:46:32.136Z,7.10
2023-01-30T14:49:05.191Z,7.10
2023-01-30T14:51:43.522Z,7.00
2023-01-30T14:54:13.766Z,7.00
2023-01-30T14:56:54.201Z,6.90
2023-01-30T14:59:42.350Z,7.00
2023-01-30T15:02:15.358Z,7.00
2023-01-30T15:05:02.106Z,7.00
2023-01-30T15:07:45.725Z,7.00
2023-01-30T15:10:37.451Z,7.20
2023-01-30T15:13:42.381Z,7.20
2023-01-30T15:16:28.369Z,7.20
2023-01-30T15:19:07.611Z,7.10
2023-01-30T15:22:07.917Z,7.10
2023-01-30T15:25:02.830Z,7.00
2023-01-30T15:27:44.721Z,7.00
2023-01-30T15:30:17.905Z,7.00
2023-01-30T15:32:45.153Z,7.00
2023-01-30T15:35:11.846Z,6.90
2023-01-30T15:38:02.785Z,7.00
2023-01-30T15:40:30.483Z,6.90
2023-01-30T15:43:28.085Z,6.90
2023-01-30T15:46:25.466Z,7.00
2023-01-30T15:49:20.040Z,6.90
2023-01-30T15:51:47.355Z,6.90
2023-01-30T15:54:18.341Z,6.90
2023-01-30T15:56:48.774Z,6.90
2023-01-30T15:59:34.539Z,6.90
2023-01-30T16:02:08.169Z,6.90
2023-01-30T16:04:35.139Z,6.80
2023-01-30T16:07:17.646Z,6.80
2023-01-30T16:10:06.321Z,6.80
2023-01-30T16:12:34.239Z,6.80
2023-01-30T16:15:17.453Z,6.80
2023-01-30T16:17:58.146Z,6.70
2023-01-30T16:20:25.320Z,6.70
2023-01-30T16:22:53.026Z,6.60
2023-01-30T16:25:30.086Z,6.60
2023-01-30T16:27:58.472Z,6.50
2023-01-30T16:30:29.875Z,6.50
2023-01-30T16:32:57.355Z,6.60
2023-01-30T16:35:27.013Z,6.50
2023-01-30T16:37:56.951Z,6.40
2023-01-30T16:40:25.752Z,6.30
2023-01-30T16:42:58.801Z,6.20
2023-01-30T16:45:34.953Z,6.10
2023-01-30T16:48:16.756Z,6.00
2023-01-30T16:50:45.067Z,6.00
2023-01-30T16:53:22.222Z,5.90
2023-01-30T16:55:57.133Z,5.80
2023-01-30T16:58:32.456Z,5.70
2023-01-30T17:01:05.144Z,5.70
2023-01-30T17:03:38.389Z,5.60
2023-01-30T17:06:18.169Z,5.60
2023-01-30T17:08:49.407Z,5.50
2023-01-30T17:11:39.669Z,5.40
2023-01-30T17:14:16.288Z,5.30
2023-01-30T17:16:43.666Z,5.10
2023-01-30T17:19:10.292Z,5.00
2023-01-30T17:21:46.757Z,4.90
2023-01-30T17:24:16.920Z,4.90
2023-01-30T17:26:45.188Z,4.80
2023-01-30T17:29:23.703Z,4.90
2023-01-30T17:32:01.332Z,4.80
2023-01-30T17:34:28.941Z,4.90
2023-01-30T17:36:56.129Z,4.90
2023-01-30T17:39:26.689Z,5.00
2023-01-30T17:41:53.416Z,5.00
2023-01-30T17:44:20.036Z,5.10
2023-01-30T17:46:48.994Z,5.20
2023-01-30T17:49:20.052Z,5.30
2023-01-30T17:52:21.379Z,5.30
2023-01-30T17:54:56.023Z,5.30
2023-01-30T17:57:25.232Z,5.30
2023-01-30T17:59:52.224Z,5.20
2023-01-30T18:02:19.044Z,5.20
2023-01-30T18:04:45.742Z,5.10
2023-01-30T18:07:14.748Z,5.00
2023-01-30T18:09:41.415Z,5.00
2023-01-30T18:12:08.161Z,5.00
2023-01-30T18:14:34.879Z,5.00
2023-01-30T18:17:01.980Z,5.10
2023-01-30T18:19:30.369Z,5.20
2023-01-30T18:21:58.380Z,5.30
2023-01-30T18:24:25.159Z,5.30
2023-01-30T18:26:52.067Z,5.30
2023-01-30T18:29:37.802Z,5.40
2023-01-30T18:32:06.104Z,5.50
2023-01-30T18:34:33.407Z,5.50
2023-01-30T18:37:00.281Z,5.60
2023-01-30T18:39:27.243Z,5.60
2023-01-30T18:41:54.151Z,5.60
2023-01-30T18:44:20.972Z,5.60
2023-01-30T18:46:50.310Z,5.60
2023-01-30T18:49:17.077Z,5.60
2023-01-30T18:51:43.830Z,5.70
2023-01-30T18:54:10.512Z,5.70
2023-01-30T18:56:59.871Z,5.70
2023-01-30T19:02:51.456Z,5.70
2023-01-30T19:05:18.320Z,5.80
2023-01-30T19:07:45.417Z,5.80
2023-01-30T19:10:17.160Z,5.80
2023-01-30T19:13:03.469Z,5.80
2023-01-30T19:15:30.328Z,5.80
2023-01-30T19:17:58.081Z,5.80
2023-01-30T19:20:25.406Z,5.80
2023-01-30T19:22:54.806Z,5.80
2023-01-30T19:25:34.249Z,5.80
2023-01-30T19:28:03.533Z,5.90
2023-01-30T19:30:31.631Z,5.80
2023-01-30T19:32:59.082Z,5.80
2023-01-30T19:35:25.820Z,5.80
2023-01-30T19:37:55.040Z,5.80
2023-01-30T19:40:22.080Z,5.80
2023-01-30T19:42:49.896Z,5.80
2023-01-30T19:45:18.218Z,5.90
2023-01-30T19:47:44.909Z,5.80
2023-01-30T19:50:11.740Z,5.70
2023-01-30T19:52:38.575Z,5.70
2023-01-30T19:55:05.590Z,5.70
2023-01-30T19:57:32.282Z,5.70
2023-01-30T19:59:58.919Z,5.70
2023-01-30T20:02:25.680Z,5.80
2023-01-30T20:04:52.423Z,5.80
2023-01-30T20:07:19.122Z,5.80
2023-01-30T20:09:45.768Z,5.80
2023-01-30T20:12:12.430Z,5.70
2023-01-30T20:14:39.093Z,5.70
2023-01-30T20:17:05.781Z,5.70
2023-01-30T20:19:32.480Z,5.60
2023-01-30T20:21:59.619Z,5.50
2023-01-30T20:24:27.024Z,5.50
2023-01-30T20:26:53.675Z,5.50
2023-01-30T20:29:20.357Z,5.50
2023-01-30T20:31:47.242Z,5.50
2023-01-30T20:34:14.794Z,5.40
2023-01-30T20:36:41.670Z,5.40
2023-01-30T20:39:08.736Z,5.30
2023-01-30T20:41:37.552Z,5.30
2023-01-30T20:44:06.077Z,5.30
2023-01-30T20:46:41.801Z,5.30
2023-01-30T20:49:18.949Z,5.30
2023-01-30T20:51:46.726Z,5.30
2023-01-30T20:54:15.030Z,5.40
2023-01-30T20:56:46.798Z,5.50
2023-01-30T20:59:16.149Z,5.30
2023-01-30T21:01:43.354Z,5.30
2023-01-30T21:04:16.127Z,5.30
2023-01-30T21:06:46.058Z,5.40
2023-01-30T21:09:22.404Z,5.40
2023-01-30T21:11:52.388Z,5.40
2023-01-30T21:14:19.136Z,5.40
2023-01-30T21:16:46.481Z,5.40
2023-01-30T21:19:16.411Z,5.30
2023-01-30T21:21:53.846Z,5.20
2023-01-30T21:24:28.447Z,5.10
2023-01-30T21:26:56.107Z,5.00
2023-01-30T21:29:25.902Z,5.00
2023-01-30T21:31:53.121Z,4.90
2023-01-30T21:34:19.981Z,4.90
2023-01-30T21:37:06.703Z,4.90
2023-01-30T21:39:52.261Z,5.00
2023-01-30T21:42:37.848Z,5.00
2023-01-30T21:45:06.675Z,4.90
2023-01-30T21:47:33.446Z,4.90
2023-01-30T21:50:00.132Z,4.90
2023-01-30T21:52:26.756Z,4.90
2023-01-30T21:54:53.431Z,4.90
2023-01-30T21:57:20.136Z,4.90
2023-01-30T21:59:46.850Z,4.90
2023-01-30T22:02:13.468Z,4.90
2023-01-30T22:04:40.208Z,4.90
2023-01-30T22:07:07.076Z,5.00
2023-01-30T22:09:33.918Z,4.90
2023-01-30T22:12:00.566Z,5.00
2023-01-30T22:14:27.468Z,4.90
2023-01-30T22:16:54.640Z,4.90
2023-01-30T22:19:21.386Z,4.80
2023-01-30T22:21:48.200Z,4.70
2023-01-30T22:24:15.356Z,4.70
2023-01-30T22:26:42.086Z,4.70
2023-01-30T22:29:09.364Z,4.70
2023-01-30T22:31:40.300Z,4.70
2023-01-30T22:34:07.178Z,4.80
2023-01-30T22:36:35.057Z,4.80
2023-01-30T22:39:02.613Z,4.80
2023-01-30T22:41:32.385Z,4.80
2023-01-30T22:44:00.486Z,4.90
2023-01-30T22:46:31.395Z,4.90
2023-01-30T22:48:59.408Z,4.90
2023-01-30T22:51:28.524Z,4.90
2023-01-30T22:53:57.742Z,4.90
2023-01-30T22:56:27.556Z,4.80
2023-01-30T22:58:54.738Z,4.80
2023-01-30T23:01:24.541Z,4.90
2023-01-30T23:03:59.377Z,4.80
2023-01-30T23:06:27.309Z,4.80
2023-01-30T23:08:54.835Z,4.70
2023-01-30T23:11:30.053Z,4.60
2023-01-30T23:14:03.903Z,4.60
2023-01-30T23:16:33.026Z,4.60
2023-01-30T23:19:00.065Z,4.50
2023-01-30T23:21:31.769Z,4.50
2023-01-30T23:24:00.686Z,4.50
2023-01-30T23:26:30.371Z,4.60
2023-01-30T23:28:57.737Z,4.50
2023-01-30T23:31:26.908Z,4.50
2023-01-30T23:33:54.705Z,4.50
2023-01-30T23:36:22.064Z,4.40
2023-01-30T23:38:50.691Z,4.30
2023-01-30T23:41:20.536Z,4.40
2023-01-30T23:43:48.539Z,4.40
2023-01-30T23:46:21.429Z,4.40
2023-01-30T23:48:50.396Z,4.40
2023-01-30T23:51:18.677Z,4.40
2023-01-30T23:53:46.097Z,4.40
2023-01-30T23:56:13.658Z,4.40
2023-01-30T23:58:41.587Z,4.40
